PWSweather.com
Personal Weather Stations
Station Observations
BALTRELAY
Relay, Baltimore, MD 21227

RelayBaltimore, MD 21227

Lat: 39.24588, Lon: -76.719772

Elevation: 221

Station Type: Davis Vantage Pro2 (6153)

http://www.relayweather.com

Latest ConditionsUpdated 9:50:00 AM GMT Tuesday, Feb 28, 2017
Currently Today's Max Today's Min Today's Average
Temperature 45.6°F7.6°C 49.3°F9.6°C 44.7°F7.1°C 47.1°F8.4°C
Dew Point 35.6°F2.0°C 36.5°F2.5°C 34.2°F1.2°C 35.3°F1.8°C
Winds Calm Calm 4.6 mph SE7.4 kmh SE - 0.5 mph 0.8 kmh
Wind Gusts -- 6.9 mph11.1 kmh - -
Humidity 68% 69% 57% 64%
Pressure 30.30 in1026.1 mb 30.38 in1028.8 mb 30.30 in1026.1 mb -
Hour Temp Dew Point Humidity Winds Wind Gusts Pressure Precip Precip Rate Daily Precip Total
09:50 AM 45.6°F7.6°C 35.6°F2.0°C 68% Calm Calm -- 30.30 in1026.1 mb - 0.00 in0.0 mm 0.00 in0.0 mm
09:45 AM 45.5°F7.5°C 35.2°F1.8°C 67% Calm Calm -- 30.30 in1026.1 mb - 0.00 in0.0 mm 0.00 in0.0 mm
09:40 AM 45.4°F7.4°C 35.4°F1.9°C 68% Calm Calm -- 30.30 in1026.1 mb - 0.00 in0.0 mm 0.00 in0.0 mm
09:30 AM 45.1°F7.3°C 34.8°F1.6°C 67% Calm Calm -- 30.31 in1026.4 mb - 0.00 in0.0 mm 0.00 in0.0 mm
09:20 AM 45.0°F7.2°C 34.7°F1.5°C 67% Calm Calm -- 30.30 in1026.1 mb - 0.00 in0.0 mm 0.00 in0.0 mm
09:15 AM 44.9°F7.2°C 34.6°F1.4°C 67% Calm Calm -- 30.30 in1026.1 mb - 0.00 in0.0 mm 0.00 in0.0 mm
09:10 AM 45.0°F7.2°C 34.7°F1.5°C 67% Calm Calm -- 30.30 in1026.1 mb - 0.00 in0.0 mm 0.00 in0.0 mm
09:00 AM 44.9°F7.2°C 34.6°F1.4°C 67% Calm Calm -- 30.30 in1026.1 mb - 0.00 in0.0 mm 0.00 in0.0 mm
08:50 AM 45.1°F7.3°C 34.8°F1.6°C 67% Calm Calm -- 30.30 in1026.1 mb - 0.00 in0.0 mm 0.00 in0.0 mm
08:45 AM 45.1°F7.3°C 35.1°F1.7°C 68% Calm Calm -- 30.30 in1026.1 mb - 0.00 in0.0 mm 0.00 in0.0 mm
08:40 AM 44.8°F7.1°C 34.9°F1.6°C 68% Calm Calm -- 30.30 in1026.1 mb - 0.00 in0.0 mm 0.00 in0.0 mm
08:30 AM 44.7°F7.1°C 35.1°F1.7°C 69% Calm Calm -- 30.31 in1026.4 mb - 0.00 in0.0 mm 0.00 in0.0 mm
08:20 AM 45.0°F7.2°C 35.5°F1.9°C 69% Calm Calm -- 30.30 in1026.1 mb - 0.00 in0.0 mm 0.00 in0.0 mm
08:15 AM 45.0°F7.2°C 35.4°F1.9°C 69% Calm Calm -- 30.30 in1026.1 mb - 0.00 in0.0 mm 0.00 in0.0 mm
08:10 AM 45.1°F7.3°C 35.1°F1.7°C 68% Calm Calm -- 30.31 in1026.4 mb - 0.00 in0.0 mm 0.00 in0.0 mm
08:00 AM 45.2°F7.3°C 35.2°F1.8°C 68% Calm Calm -- 30.30 in1026.1 mb - 0.00 in0.0 mm 0.00 in0.0 mm
07:50 AM 45.4°F7.4°C 35.4°F1.9°C 68% Calm Calm -- 30.31 in1026.4 mb - 0.00 in0.0 mm 0.00 in0.0 mm
07:45 AM 45.5°F7.5°C 35.6°F2.0°C 68% Calm Calm -- 30.31 in1026.4 mb - 0.00 in0.0 mm 0.00 in0.0 mm
07:40 AM 45.7°F7.6°C 35.3°F1.8°C 67% Calm Calm -- 30.31 in1026.4 mb - 0.00 in0.0 mm 0.00 in0.0 mm
07:30 AM 46.0°F7.8°C 35.6°F2.0°C 67% Calm Calm -- 30.32 in1026.8 mb - 0.00 in0.0 mm 0.00 in0.0 mm
07:20 AM 46.0°F7.8°C 35.7°F2.1°C 67% Calm Calm -- 30.32 in1026.8 mb - 0.00 in0.0 mm 0.00 in0.0 mm
07:15 AM 46.1°F7.8°C 35.7°F2.1°C 67% Calm Calm -- 30.32 in1026.8 mb - 0.00 in0.0 mm 0.00 in0.0 mm
07:10 AM 46.1°F7.8°C 35.7°F2.1°C 67% Calm Calm -- 30.32 in1026.8 mb - 0.00 in0.0 mm 0.00 in0.0 mm
07:00 AM 46.1°F7.8°C 35.4°F1.9°C 66% Calm Calm -- 30.33 in1027.1 mb - 0.00 in0.0 mm 0.00 in0.0 mm
06:50 AM 46.4°F8.0°C 35.2°F1.8°C 65% Calm Calm -- 30.33 in1027.1 mb - 0.00 in0.0 mm 0.00 in0.0 mm
06:45 AM 46.3°F7.9°C 35.2°F1.8°C 65% Calm Calm -- 30.33 in1027.1 mb - 0.00 in0.0 mm 0.00 in0.0 mm
06:40 AM 46.4°F8.0°C 35.3°F1.8°C 65% Calm Calm -- 30.33 in1027.1 mb - 0.00 in0.0 mm 0.00 in0.0 mm
06:30 AM 46.6°F8.1°C 35.1°F1.7°C 64% Calm Calm -- 30.33 in1027.1 mb - 0.00 in0.0 mm 0.00 in0.0 mm
06:20 AM 46.9°F8.3°C 35.3°F1.8°C 64% Calm Calm -- 30.34 in1027.4 mb - 0.00 in0.0 mm 0.00 in0.0 mm
06:15 AM 47.1°F8.4°C 35.5°F1.9°C 64% Calm Calm -- 30.34 in1027.4 mb - 0.00 in0.0 mm 0.00 in0.0 mm
06:10 AM 47.2°F8.4°C 35.2°F1.8°C 63% Calm Calm -- 30.34 in1027.4 mb - 0.00 in0.0 mm 0.00 in0.0 mm
06:00 AM 47.3°F8.5°C 35.3°F1.8°C 63% Calm Calm -- 30.34 in1027.4 mb - 0.00 in0.0 mm 0.00 in0.0 mm
05:50 AM 47.6°F8.7°C 35.2°F1.8°C 62% Calm Calm -- 30.34 in1027.4 mb - 0.00 in0.0 mm 0.00 in0.0 mm
05:45 AM 47.7°F8.7°C 35.3°F1.8°C 62% Calm Calm -- 30.34 in1027.4 mb - 0.00 in0.0 mm 0.00 in0.0 mm
05:40 AM 47.7°F8.7°C 35.3°F1.8°C 62% Calm Calm -- 30.34 in1027.4 mb - 0.00 in0.0 mm 0.00 in0.0 mm
05:30 AM 47.8°F8.8°C 35.4°F1.9°C 62% 1.2 mph S1.9 kmh S 1.2 mph1.9 kmh 30.35 in1027.8 mb - 0.00 in0.0 mm 0.00 in0.0 mm
05:20 AM 47.9°F8.8°C 35.5°F1.9°C 62% Calm Calm -- 30.35 in1027.8 mb - 0.00 in0.0 mm 0.00 in0.0 mm
05:15 AM 47.8°F8.8°C 35.8°F2.1°C 63% 2.3 mph S3.7 kmh S 4.6 mph7.4 kmh 30.35 in1027.8 mb - 0.00 in0.0 mm 0.00 in0.0 mm
05:10 AM 47.8°F8.8°C 35.8°F2.1°C 63% Calm Calm -- 30.35 in1027.8 mb - 0.00 in0.0 mm 0.00 in0.0 mm
05:00 AM 47.8°F8.8°C 36.2°F2.3°C 64% 2.3 mph S3.7 kmh S 4.6 mph7.4 kmh 30.35 in1027.8 mb - 0.00 in0.0 mm 0.00 in0.0 mm
04:50 AM 47.8°F8.8°C 36.2°F2.3°C 64% Calm Calm -- 30.35 in1027.8 mb - 0.00 in0.0 mm 0.00 in0.0 mm
04:45 AM 47.9°F8.8°C 36.3°F2.4°C 64% Calm Calm -- 30.35 in1027.8 mb - 0.00 in0.0 mm 0.00 in0.0 mm
04:40 AM 47.9°F8.8°C 36.3°F2.4°C 64% Calm Calm -- 30.34 in1027.4 mb - 0.00 in0.0 mm 0.00 in0.0 mm
04:30 AM 47.7°F8.7°C 36.5°F2.5°C 65% Calm Calm 3.5 mph5.6 kmh 30.35 in1027.8 mb - 0.00 in0.0 mm 0.00 in0.0 mm
04:20 AM 47.5°F8.6°C 36.4°F2.4°C 65% Calm Calm -- 30.35 in1027.8 mb - 0.00 in0.0 mm 0.00 in0.0 mm
04:15 AM 47.4°F8.6°C 36.2°F2.3°C 65% 1.2 mph SSE1.9 kmh SSE 2.3 mph3.7 kmh 30.35 in1027.8 mb - 0.00 in0.0 mm 0.00 in0.0 mm
04:10 AM 47.3°F8.5°C 36.1°F2.3°C 65% 1.2 mph SSE1.9 kmh SSE 3.5 mph5.6 kmh 30.35 in1027.8 mb - 0.00 in0.0 mm 0.00 in0.0 mm
04:00 AM 47.4°F8.6°C 36.2°F2.3°C 65% Calm Calm 4.6 mph7.4 kmh 30.35 in1027.8 mb - 0.00 in0.0 mm 0.00 in0.0 mm
03:50 AM 47.6°F8.7°C 36.0°F2.2°C 64% Calm Calm -- 30.36 in1028.1 mb - 0.00 in0.0 mm 0.00 in0.0 mm
03:45 AM 47.6°F8.7°C 36.0°F2.2°C 64% Calm Calm -- 30.36 in1028.1 mb - 0.00 in0.0 mm 0.00 in0.0 mm
03:40 AM 47.6°F8.7°C 36.0°F2.2°C 64% Calm Calm -- 30.36 in1028.1 mb - 0.00 in0.0 mm 0.00 in0.0 mm
03:30 AM 47.9°F8.8°C 36.3°F2.4°C 64% Calm Calm 4.6 mph7.4 kmh 30.36 in1028.1 mb - 0.00 in0.0 mm 0.00 in0.0 mm
03:20 AM 47.8°F8.8°C 35.8°F2.1°C 63% 2.3 mph S3.7 kmh S 4.6 mph7.4 kmh 30.36 in1028.1 mb - 0.00 in0.0 mm 0.00 in0.0 mm
03:15 AM 47.7°F8.7°C 36.1°F2.3°C 64% 3.5 mph S5.6 kmh S 3.5 mph5.6 kmh 30.37 in1028.4 mb - 0.00 in0.0 mm 0.00 in0.0 mm
03:10 AM 47.5°F8.6°C 36.0°F2.2°C 64% 4.6 mph S7.4 kmh S 6.9 mph11.1 kmh 30.37 in1028.4 mb - 0.00 in0.0 mm 0.00 in0.0 mm
03:00 AM 47.5°F8.6°C 35.9°F2.2°C 64% Calm Calm -- 30.37 in1028.4 mb - 0.00 in0.0 mm 0.00 in0.0 mm
02:50 AM 47.7°F8.7°C 36.1°F2.3°C 64% 1.2 mph SE1.9 kmh SE 2.3 mph3.7 kmh 30.37 in1028.4 mb - 0.00 in0.0 mm 0.00 in0.0 mm
02:45 AM 47.9°F8.8°C 35.9°F2.2°C 63% 1.2 mph SE1.9 kmh SE 2.3 mph3.7 kmh 30.37 in1028.4 mb - 0.00 in0.0 mm 0.00 in0.0 mm
02:40 AM 48.0°F8.9°C 36.0°F2.2°C 63% 1.2 mph SE1.9 kmh SE 2.3 mph3.7 kmh 30.37 in1028.4 mb - 0.00 in0.0 mm 0.00 in0.0 mm
02:30 AM 48.1°F8.9°C 35.7°F2.1°C 62% Calm Calm 2.3 mph3.7 kmh 30.37 in1028.4 mb - 0.00 in0.0 mm 0.00 in0.0 mm
02:20 AM 48.2°F9.0°C 35.8°F2.1°C 62% Calm Calm -- 30.37 in1028.4 mb - 0.00 in0.0 mm 0.00 in0.0 mm
02:15 AM 48.2°F9.0°C 35.4°F1.9°C 61% Calm Calm -- 30.37 in1028.4 mb - 0.00 in0.0 mm 0.00 in0.0 mm
02:10 AM 48.2°F9.0°C 35.4°F1.9°C 61% Calm Calm -- 30.37 in1028.4 mb - 0.00 in0.0 mm 0.00 in0.0 mm
02:00 AM 48.2°F9.0°C 35.4°F1.9°C 61% Calm Calm -- 30.37 in1028.4 mb - 0.00 in0.0 mm 0.00 in0.0 mm
01:50 AM 48.1°F8.9°C 34.8°F1.6°C 60% Calm Calm -- 30.37 in1028.4 mb - 0.00 in0.0 mm 0.00 in0.0 mm
01:45 AM 48.1°F8.9°C 34.4°F1.3°C 59% Calm Calm -- 30.37 in1028.4 mb - 0.00 in0.0 mm 0.00 in0.0 mm
01:40 AM 48.1°F8.9°C 34.4°F1.3°C 59% Calm Calm -- 30.37 in1028.4 mb - 0.00 in0.0 mm 0.00 in0.0 mm
01:30 AM 48.3°F9.1°C 34.2°F1.2°C 58% Calm Calm -- 30.37 in1028.4 mb - 0.00 in0.0 mm 0.00 in0.0 mm
01:20 AM 48.4°F9.1°C 34.3°F1.3°C 58% Calm Calm -- 30.36 in1028.1 mb - 0.00 in0.0 mm 0.00 in0.0 mm
01:15 AM 48.4°F9.1°C 34.7°F1.5°C 59% Calm Calm -- 30.36 in1028.1 mb - 0.00 in0.0 mm 0.00 in0.0 mm
01:10 AM 48.4°F9.1°C 34.7°F1.5°C 59% Calm Calm -- 30.36 in1028.1 mb - 0.00 in0.0 mm 0.00 in0.0 mm
01:00 AM 48.5°F9.2°C 34.4°F1.3°C 58% Calm Calm -- 30.35 in1027.8 mb - 0.00 in0.0 mm 0.00 in0.0 mm
12:50 AM 48.6°F9.2°C 34.5°F1.4°C 58% Calm Calm -- 30.36 in1028.1 mb - 0.00 in0.0 mm 0.00 in0.0 mm
12:45 AM 48.7°F9.3°C 34.6°F1.4°C 58% Calm Calm 2.3 mph3.7 kmh 30.36 in1028.1 mb - 0.00 in0.0 mm 0.00 in0.0 mm
12:40 AM 48.8°F9.3°C 34.2°F1.2°C 57% 2.3 mph SE3.7 kmh SE 4.6 mph7.4 kmh 30.36 in1028.1 mb - 0.00 in0.0 mm 0.00 in0.0 mm
12:30 AM 48.9°F9.4°C 34.3°F1.3°C 57% 2.3 mph SE3.7 kmh SE 3.5 mph5.6 kmh 30.37 in1028.4 mb - 0.00 in0.0 mm 0.00 in0.0 mm
12:20 AM 49.1°F9.5°C 34.5°F1.4°C 57% 4.6 mph SE7.4 kmh SE 5.8 mph9.3 kmh 30.37 in1028.4 mb - 0.00 in0.0 mm 0.00 in0.0 mm
12:15 AM 49.2°F9.6°C 34.6°F1.4°C 57% 4.6 mph SE7.4 kmh SE 4.6 mph7.4 kmh 30.37 in1028.4 mb - 0.00 in0.0 mm 0.00 in0.0 mm
12:10 AM 49.2°F9.6°C 34.6°F1.4°C 57% 2.3 mph SSE3.7 kmh SSE 3.5 mph5.6 kmh 30.38 in1028.8 mb - 0.00 in0.0 mm 0.00 in0.0 mm
12:00 AM 49.3°F9.6°C 34.7°F1.5°C 57% 3.5 mph SSE5.6 kmh SSE 4.6 mph7.4 kmh 30.38 in1028.8 mb - 0.00 in0.0 mm 0.00 in0.0 mm